sensor_id;sensor_type;location;lat;lon;timestamp;P1;durP1;ratioP1;P2;durP2;ratioP2
53925;SDS011;39836;52.754;6.866;2022-12-18T00:01:35;126.60;;;43.63;;
53925;SDS011;39836;52.754;6.866;2022-12-18T00:04:03;137.27;;;44.78;;
53925;SDS011;39836;52.754;6.866;2022-12-18T00:06:30;127.13;;;45.75;;
53925;SDS011;39836;52.754;6.866;2022-12-18T00:08:58;133.40;;;45.10;;
53925;SDS011;39836;52.754;6.866;2022-12-18T00:11:25;147.60;;;47.72;;
53925;SDS011;39836;52.754;6.866;2022-12-18T00:13:54;134.63;;;43.50;;
53925;SDS011;39836;52.754;6.866;2022-12-18T00:16:22;129.73;;;45.60;;
53925;SDS011;39836;52.754;6.866;2022-12-18T00:18:49;110.32;;;42.13;;
53925;SDS011;39836;52.754;6.866;2022-12-18T00:21:16;141.25;;;46.70;;
53925;SDS011;39836;52.754;6.866;2022-12-18T00:23:43;129.65;;;46.38;;
53925;SDS011;39836;52.754;6.866;2022-12-18T00:26:13;129.15;;;44.95;;
53925;SDS011;39836;52.754;6.866;2022-12-18T00:28:43;151.40;;;47.80;;
53925;SDS011;39836;52.754;6.866;2022-12-18T00:31:11;122.55;;;45.90;;
53925;SDS011;39836;52.754;6.866;2022-12-18T00:33:38;139.40;;;49.63;;
53925;SDS011;39836;52.754;6.866;2022-12-18T00:36:04;125.85;;;43.92;;
53925;SDS011;39836;52.754;6.866;2022-12-18T00:38:46;141.75;;;49.85;;
53925;SDS011;39836;52.754;6.866;2022-12-18T00:41:12;130.98;;;46.97;;
53925;SDS011;39836;52.754;6.866;2022-12-18T00:43:59;117.45;;;44.13;;
53925;SDS011;39836;52.754;6.866;2022-12-18T00:46:25;136.35;;;46.55;;
53925;SDS011;39836;52.754;6.866;2022-12-18T00:48:51;128.52;;;46.25;;
53925;SDS011;39836;52.754;6.866;2022-12-18T00:51:16;134.63;;;46.70;;
53925;SDS011;39836;52.754;6.866;2022-12-18T00:53:42;122.90;;;47.85;;
53925;SDS011;39836;52.754;6.866;2022-12-18T00:56:08;133.25;;;46.65;;
53925;SDS011;39836;52.754;6.866;2022-12-18T00:58:33;125.18;;;45.00;;
53925;SDS011;39836;52.754;6.866;2022-12-18T01:00:59;125.97;;;47.58;;
53925;SDS011;39836;52.754;6.866;2022-12-18T01:03:24;120.22;;;44.67;;
53925;SDS011;39836;52.754;6.866;2022-12-18T01:05:50;120.38;;;44.15;;
53925;SDS011;39836;52.754;6.866;2022-12-18T01:08:16;129.60;;;47.40;;
53925;SDS011;39836;52.754;6.866;2022-12-18T01:10:41;124.13;;;42.55;;
53925;SDS011;39836;52.754;6.866;2022-12-18T01:13:07;116.07;;;43.72;;
53925;SDS011;39836;52.754;6.866;2022-12-18T01:15:33;121.05;;;46.00;;
53925;SDS011;39836;52.754;6.866;2022-12-18T01:17:59;142.13;;;47.60;;
53925;SDS011;39836;52.754;6.866;2022-12-18T01:20:24;132.13;;;49.00;;
53925;SDS011;39836;52.754;6.866;2022-12-18T01:22:50;131.88;;;46.65;;
53925;SDS011;39836;52.754;6.866;2022-12-18T01:25:15;142.00;;;47.83;;
53925;SDS011;39836;52.754;6.866;2022-12-18T01:27:41;159.05;;;52.50;;
53925;SDS011;39836;52.754;6.866;2022-12-18T01:30:07;146.57;;;49.35;;
53925;SDS011;39836;52.754;6.866;2022-12-18T01:32:33;172.20;;;55.13;;
53925;SDS011;39836;52.754;6.866;2022-12-18T01:34:59;167.45;;;52.63;;
53925;SDS011;39836;52.754;6.866;2022-12-18T01:37:24;181.90;;;53.97;;
53925;SDS011;39836;52.754;6.866;2022-12-18T01:39:50;157.15;;;50.10;;
53925;SDS011;39836;52.754;6.866;2022-12-18T01:42:19;162.80;;;55.00;;
53925;SDS011;39836;52.754;6.866;2022-12-18T01:47:40;158.40;;;53.80;;
53925;SDS011;39836;52.754;6.866;2022-12-18T01:53:12;143.45;;;50.67;;
53925;SDS011;39836;52.754;6.866;2022-12-18T01:55:41;124.30;;;45.75;;
53925;SDS011;39836;52.754;6.866;2022-12-18T01:58:10;149.73;;;51.03;;
53925;SDS011;39836;52.754;6.866;2022-12-18T02:00:36;121.15;;;46.72;;
53925;SDS011;39836;52.754;6.866;2022-12-18T02:03:01;118.40;;;45.28;;
53925;SDS011;39836;52.754;6.866;2022-12-18T02:08:35;100.93;;;40.65;;
53925;SDS011;39836;52.754;6.866;2022-12-18T02:14:04;103.10;;;41.15;;
53925;SDS011;39836;52.754;6.866;2022-12-18T02:16:54;112.07;;;40.70;;
53925;SDS011;39836;52.754;6.866;2022-12-18T02:22:21;107.18;;;40.15;;
53925;SDS011;39836;52.754;6.866;2022-12-18T02:27:29;102.95;;;39.95;;
53925;SDS011;39836;52.754;6.866;2022-12-18T02:29:57;86.50;;;38.40;;
53925;SDS011;39836;52.754;6.866;2022-12-18T02:32:37;99.30;;;42.63;;
53925;SDS011;39836;52.754;6.866;2022-12-18T02:35:13;96.22;;;40.17;;
53925;SDS011;39836;52.754;6.866;2022-12-18T02:37:44;97.57;;;38.97;;
53925;SDS011;39836;52.754;6.866;2022-12-18T02:40:12;87.22;;;40.20;;
53925;SDS011;39836;52.754;6.866;2022-12-18T02:42:40;90.57;;;41.15;;
53925;SDS011;39836;52.754;6.866;2022-12-18T02:45:06;88.75;;;39.55;;
53925;SDS011;39836;52.754;6.866;2022-12-18T02:47:33;97.60;;;38.92;;
53925;SDS011;39836;52.754;6.866;2022-12-18T02:58:26;82.55;;;37.17;;
53925;SDS011;39836;52.754;6.866;2022-12-18T03:01:21;90.18;;;37.00;;
53925;SDS011;39836;52.754;6.866;2022-12-18T03:04:04;82.45;;;36.55;;
53925;SDS011;39836;52.754;6.866;2022-12-18T03:06:37;81.60;;;35.58;;
53925;SDS011;39836;52.754;6.866;2022-12-18T03:09:07;79.95;;;36.85;;
53925;SDS011;39836;52.754;6.866;2022-12-18T03:11:40;79.50;;;37.50;;
53925;SDS011;39836;52.754;6.866;2022-12-18T03:14:29;90.88;;;37.13;;
53925;SDS011;39836;52.754;6.866;2022-12-18T03:16:58;86.65;;;37.58;;
53925;SDS011;39836;52.754;6.866;2022-12-18T03:19:29;86.00;;;38.05;;
53925;SDS011;39836;52.754;6.866;2022-12-18T03:21:57;97.78;;;37.30;;
53925;SDS011;39836;52.754;6.866;2022-12-18T03:24:27;85.00;;;36.55;;
53925;SDS011;39836;52.754;6.866;2022-12-18T03:27:02;76.43;;;34.35;;
53925;SDS011;39836;52.754;6.866;2022-12-18T03:29:42;97.30;;;41.05;;
53925;SDS011;39836;52.754;6.866;2022-12-18T03:32:47;82.40;;;34.15;;
53925;SDS011;39836;52.754;6.866;2022-12-18T03:35:19;83.80;;;36.90;;
53925;SDS011;39836;52.754;6.866;2022-12-18T03:37:48;82.47;;;33.92;;
53925;SDS011;39836;52.754;6.866;2022-12-18T03:40:14;101.82;;;37.38;;
53925;SDS011;39836;52.754;6.866;2022-12-18T03:43:03;92.88;;;40.05;;
53925;SDS011;39836;52.754;6.866;2022-12-18T03:45:41;74.78;;;33.45;;
53925;SDS011;39836;52.754;6.866;2022-12-18T03:48:17;80.20;;;35.85;;
53925;SDS011;39836;52.754;6.866;2022-12-18T03:55:51;74.88;;;34.95;;
53925;SDS011;39836;52.754;6.866;2022-12-18T03:58:18;84.55;;;38.33;;
53925;SDS011;39836;52.754;6.866;2022-12-18T04:00:47;71.68;;;31.75;;
53925;SDS011;39836;52.754;6.866;2022-12-18T04:03:17;67.90;;;33.08;;
53925;SDS011;39836;52.754;6.866;2022-12-18T04:05:44;76.57;;;34.88;;
53925;SDS011;39836;52.754;6.866;2022-12-18T04:08:12;73.75;;;34.38;;
53925;SDS011;39836;52.754;6.866;2022-12-18T04:10:39;69.93;;;32.92;;
53925;SDS011;39836;52.754;6.866;2022-12-18T04:13:05;74.68;;;34.40;;
53925;SDS011;39836;52.754;6.866;2022-12-18T04:15:31;69.30;;;35.50;;
53925;SDS011;39836;52.754;6.866;2022-12-18T04:17:59;73.43;;;34.25;;
53925;SDS011;39836;52.754;6.866;2022-12-18T04:20:25;61.80;;;30.63;;
53925;SDS011;39836;52.754;6.866;2022-12-18T04:22:50;74.10;;;34.60;;
53925;SDS011;39836;52.754;6.866;2022-12-18T04:25:16;70.18;;;32.55;;
53925;SDS011;39836;52.754;6.866;2022-12-18T04:27:42;74.40;;;34.50;;
53925;SDS011;39836;52.754;6.866;2022-12-18T04:30:07;67.00;;;34.15;;
53925;SDS011;39836;52.754;6.866;2022-12-18T04:32:33;63.40;;;30.85;;
53925;SDS011;39836;52.754;6.866;2022-12-18T04:34:59;60.92;;;31.08;;
53925;SDS011;39836;52.754;6.866;2022-12-18T04:37:25;65.75;;;30.55;;
53925;SDS011;39836;52.754;6.866;2022-12-18T04:39:51;59.35;;;29.85;;
53925;SDS011;39836;52.754;6.866;2022-12-18T04:42:16;61.83;;;29.33;;
53925;SDS011;39836;52.754;6.866;2022-12-18T04:44:42;59.25;;;29.75;;
53925;SDS011;39836;52.754;6.866;2022-12-18T04:47:08;61.00;;;30.02;;
53925;SDS011;39836;52.754;6.866;2022-12-18T04:49:33;59.17;;;27.58;;
53925;SDS011;39836;52.754;6.866;2022-12-18T04:51:59;60.15;;;30.40;;
53925;SDS011;39836;52.754;6.866;2022-12-18T04:54:24;62.60;;;30.02;;
53925;SDS011;39836;52.754;6.866;2022-12-18T04:56:50;64.72;;;31.95;;
53925;SDS011;39836;52.754;6.866;2022-12-18T04:59:16;60.13;;;29.45;;
53925;SDS011;39836;52.754;6.866;2022-12-18T05:01:41;62.10;;;31.15;;
53925;SDS011;39836;52.754;6.866;2022-12-18T05:04:07;66.25;;;31.25;;
53925;SDS011;39836;52.754;6.866;2022-12-18T05:06:33;62.63;;;30.85;;
53925;SDS011;39836;52.754;6.866;2022-12-18T05:08:59;66.80;;;31.70;;
53925;SDS011;39836;52.754;6.866;2022-12-18T05:11:24;68.53;;;33.47;;
53925;SDS011;39836;52.754;6.866;2022-12-18T05:13:50;64.57;;;32.47;;
53925;SDS011;39836;52.754;6.866;2022-12-18T05:16:16;68.57;;;33.50;;
53925;SDS011;39836;52.754;6.866;2022-12-18T05:18:41;65.85;;;32.45;;
53925;SDS011;39836;52.754;6.866;2022-12-18T05:21:07;64.97;;;31.02;;
53925;SDS011;39836;52.754;6.866;2022-12-18T05:23:33;59.75;;;30.17;;
53925;SDS011;39836;52.754;6.866;2022-12-18T05:26:01;60.08;;;30.35;;
53925;SDS011;39836;52.754;6.866;2022-12-18T05:28:29;62.75;;;33.65;;
53925;SDS011;39836;52.754;6.866;2022-12-18T05:30:57;63.58;;;34.20;;
53925;SDS011;39836;52.754;6.866;2022-12-18T05:33:26;59.85;;;29.40;;
53925;SDS011;39836;52.754;6.866;2022-12-18T05:35:55;65.18;;;35.25;;
53925;SDS011;39836;52.754;6.866;2022-12-18T05:38:25;57.45;;;30.77;;
53925;SDS011;39836;52.754;6.866;2022-12-18T05:40:52;59.45;;;32.60;;
53925;SDS011;39836;52.754;6.866;2022-12-18T05:43:19;64.25;;;35.83;;
53925;SDS011;39836;52.754;6.866;2022-12-18T05:45:46;60.22;;;31.75;;
53925;SDS011;39836;52.754;6.866;2022-12-18T05:48:13;59.22;;;31.58;;
53925;SDS011;39836;52.754;6.866;2022-12-18T05:50:40;57.40;;;30.90;;
53925;SDS011;39836;52.754;6.866;2022-12-18T05:53:06;57.88;;;31.65;;
53925;SDS011;39836;52.754;6.866;2022-12-18T05:55:36;57.55;;;32.45;;
53925;SDS011;39836;52.754;6.866;2022-12-18T05:58:03;74.93;;;31.52;;
53925;SDS011;39836;52.754;6.866;2022-12-18T06:00:30;56.40;;;30.83;;
53925;SDS011;39836;52.754;6.866;2022-12-18T06:02:57;55.88;;;29.95;;
53925;SDS011;39836;52.754;6.866;2022-12-18T06:05:24;55.97;;;29.08;;
53925;SDS011;39836;52.754;6.866;2022-12-18T06:07:49;53.15;;;29.02;;
53925;SDS011;39836;52.754;6.866;2022-12-18T06:10:15;48.55;;;27.35;;
53925;SDS011;39836;52.754;6.866;2022-12-18T06:12:41;52.72;;;27.10;;
53925;SDS011;39836;52.754;6.866;2022-12-18T06:15:07;46.20;;;26.77;;
53925;SDS011;39836;52.754;6.866;2022-12-18T06:17:33;51.35;;;28.63;;
53925;SDS011;39836;52.754;6.866;2022-12-18T06:19:59;53.13;;;29.88;;
53925;SDS011;39836;52.754;6.866;2022-12-18T06:22:26;48.28;;;25.95;;
53925;SDS011;39836;52.754;6.866;2022-12-18T06:24:52;54.47;;;30.02;;
53925;SDS011;39836;52.754;6.866;2022-12-18T06:27:17;49.47;;;28.20;;
53925;SDS011;39836;52.754;6.866;2022-12-18T06:29:43;52.88;;;30.33;;
53925;SDS011;39836;52.754;6.866;2022-12-18T06:32:09;53.72;;;28.95;;
53925;SDS011;39836;52.754;6.866;2022-12-18T06:34:36;52.60;;;30.27;;
53925;SDS011;39836;52.754;6.866;2022-12-18T06:37:02;57.50;;;29.65;;
53925;SDS011;39836;52.754;6.866;2022-12-18T06:39:28;49.53;;;28.98;;
53925;SDS011;39836;52.754;6.866;2022-12-18T06:41:54;47.90;;;31.02;;
53925;SDS011;39836;52.754;6.866;2022-12-18T06:44:19;50.90;;;27.63;;
53925;SDS011;39836;52.754;6.866;2022-12-18T06:46:45;46.40;;;28.65;;
53925;SDS011;39836;52.754;6.866;2022-12-18T06:49:11;41.90;;;26.95;;
53925;SDS011;39836;52.754;6.866;2022-12-18T06:51:37;49.17;;;29.45;;
53925;SDS011;39836;52.754;6.866;2022-12-18T06:54:03;52.55;;;31.80;;
53925;SDS011;39836;52.754;6.866;2022-12-18T06:56:28;44.60;;;28.65;;
53925;SDS011;39836;52.754;6.866;2022-12-18T06:58:54;57.05;;;27.48;;
53925;SDS011;39836;52.754;6.866;2022-12-18T07:01:20;44.45;;;28.45;;
53925;SDS011;39836;52.754;6.866;2022-12-18T07:03:46;47.67;;;27.48;;
53925;SDS011;39836;52.754;6.866;2022-12-18T07:06:17;45.55;;;29.65;;
53925;SDS011;39836;52.754;6.866;2022-12-18T07:08:45;45.95;;;28.55;;
53925;SDS011;39836;52.754;6.866;2022-12-18T07:11:12;55.03;;;29.52;;
53925;SDS011;39836;52.754;6.866;2022-12-18T07:13:38;54.92;;;29.70;;
53925;SDS011;39836;52.754;6.866;2022-12-18T07:16:05;45.47;;;28.15;;
53925;SDS011;39836;52.754;6.866;2022-12-18T07:18:35;48.63;;;29.45;;
53925;SDS011;39836;52.754;6.866;2022-12-18T07:21:08;48.50;;;29.05;;
53925;SDS011;39836;52.754;6.866;2022-12-18T07:23:36;46.63;;;28.67;;
53925;SDS011;39836;52.754;6.866;2022-12-18T07:26:05;50.58;;;28.17;;
53925;SDS011;39836;52.754;6.866;2022-12-18T07:28:34;49.53;;;28.48;;
53925;SDS011;39836;52.754;6.866;2022-12-18T07:31:07;47.47;;;28.52;;
53925;SDS011;39836;52.754;6.866;2022-12-18T07:33:34;47.17;;;28.77;;
53925;SDS011;39836;52.754;6.866;2022-12-18T07:36:01;48.38;;;28.27;;
53925;SDS011;39836;52.754;6.866;2022-12-18T07:38:29;44.30;;;28.27;;
53925;SDS011;39836;52.754;6.866;2022-12-18T07:41:00;48.90;;;28.67;;
53925;SDS011;39836;52.754;6.866;2022-12-18T07:43:26;46.08;;;26.30;;
53925;SDS011;39836;52.754;6.866;2022-12-18T07:45:52;46.45;;;28.95;;
53925;SDS011;39836;52.754;6.866;2022-12-18T07:48:18;40.85;;;25.65;;
53925;SDS011;39836;52.754;6.866;2022-12-18T07:50:43;38.08;;;25.05;;
53925;SDS011;39836;52.754;6.866;2022-12-18T07:53:09;40.83;;;25.75;;
53925;SDS011;39836;52.754;6.866;2022-12-18T07:55:34;39.75;;;24.98;;
53925;SDS011;39836;52.754;6.866;2022-12-18T07:58:01;39.03;;;25.30;;
53925;SDS011;39836;52.754;6.866;2022-12-18T08:00:28;43.80;;;27.45;;
53925;SDS011;39836;52.754;6.866;2022-12-18T08:02:53;39.60;;;27.08;;
53925;SDS011;39836;52.754;6.866;2022-12-18T08:05:19;40.65;;;23.95;;
53925;SDS011;39836;52.754;6.866;2022-12-18T08:07:46;42.33;;;24.60;;
53925;SDS011;39836;52.754;6.866;2022-12-18T08:10:11;35.22;;;23.65;;
53925;SDS011;39836;52.754;6.866;2022-12-18T08:12:37;36.38;;;23.42;;
53925;SDS011;39836;52.754;6.866;2022-12-18T08:15:03;37.42;;;23.25;;
53925;SDS011;39836;52.754;6.866;2022-12-18T08:17:29;34.70;;;22.95;;
53925;SDS011;39836;52.754;6.866;2022-12-18T08:19:55;34.95;;;23.50;;
53925;SDS011;39836;52.754;6.866;2022-12-18T08:22:21;33.40;;;22.83;;
53925;SDS011;39836;52.754;6.866;2022-12-18T08:24:46;35.35;;;23.58;;
53925;SDS011;39836;52.754;6.866;2022-12-18T08:27:12;34.10;;;21.63;;
53925;SDS011;39836;52.754;6.866;2022-12-18T08:29:38;33.88;;;21.60;;
53925;SDS011;39836;52.754;6.866;2022-12-18T08:32:04;35.63;;;20.80;;
53925;SDS011;39836;52.754;6.866;2022-12-18T08:34:29;32.30;;;20.52;;
53925;SDS011;39836;52.754;6.866;2022-12-18T08:36:55;36.30;;;19.75;;
53925;SDS011;39836;52.754;6.866;2022-12-18T08:39:20;31.35;;;20.98;;
53925;SDS011;39836;52.754;6.866;2022-12-18T08:41:46;34.63;;;20.02;;
53925;SDS011;39836;52.754;6.866;2022-12-18T08:44:32;29.10;;;19.40;;
53925;SDS011;39836;52.754;6.866;2022-12-18T08:47:04;26.50;;;19.65;;
53925;SDS011;39836;52.754;6.866;2022-12-18T08:49:30;26.83;;;18.98;;
53925;SDS011;39836;52.754;6.866;2022-12-18T08:51:56;25.08;;;17.60;;
53925;SDS011;39836;52.754;6.866;2022-12-18T08:54:22;25.55;;;17.85;;
53925;SDS011;39836;52.754;6.866;2022-12-18T08:56:49;22.35;;;14.82;;
53925;SDS011;39836;52.754;6.866;2022-12-18T08:59:18;22.58;;;15.48;;
53925;SDS011;39836;52.754;6.866;2022-12-18T09:01:44;25.30;;;16.50;;
53925;SDS011;39836;52.754;6.866;2022-12-18T09:04:10;25.95;;;16.77;;
53925;SDS011;39836;52.754;6.866;2022-12-18T09:06:37;27.17;;;17.55;;
53925;SDS011;39836;52.754;6.866;2022-12-18T09:09:03;24.38;;;17.33;;
53925;SDS011;39836;52.754;6.866;2022-12-18T09:11:30;26.83;;;17.20;;
53925;SDS011;39836;52.754;6.866;2022-12-18T09:13:57;20.85;;;15.80;;
53925;SDS011;39836;52.754;6.866;2022-12-18T09:16:25;23.05;;;15.43;;
53925;SDS011;39836;52.754;6.866;2022-12-18T09:18:53;25.00;;;14.35;;
53925;SDS011;39836;52.754;6.866;2022-12-18T09:21:25;18.90;;;14.60;;
53925;SDS011;39836;52.754;6.866;2022-12-18T09:23:55;19.25;;;14.63;;
53925;SDS011;39836;52.754;6.866;2022-12-18T09:26:21;18.52;;;14.98;;
53925;SDS011;39836;52.754;6.866;2022-12-18T09:28:48;19.38;;;13.65;;
53925;SDS011;39836;52.754;6.866;2022-12-18T09:31:15;18.73;;;13.98;;
53925;SDS011;39836;52.754;6.866;2022-12-18T09:33:42;16.42;;;12.88;;
53925;SDS011;39836;52.754;6.866;2022-12-18T09:36:10;19.98;;;13.13;;
53925;SDS011;39836;52.754;6.866;2022-12-18T09:38:37;16.02;;;12.30;;
53925;SDS011;39836;52.754;6.866;2022-12-18T09:49:33;22.50;;;13.00;;
53925;SDS011;39836;52.754;6.866;2022-12-18T09:52:05;18.85;;;12.27;;
53925;SDS011;39836;52.754;6.866;2022-12-18T09:57:40;18.52;;;12.50;;
53925;SDS011;39836;52.754;6.866;2022-12-18T10:00:17;18.38;;;12.48;;
53925;SDS011;39836;52.754;6.866;2022-12-18T10:02:46;18.33;;;13.32;;
53925;SDS011;39836;52.754;6.866;2022-12-18T10:08:02;19.00;;;13.93;;
53925;SDS011;39836;52.754;6.866;2022-12-18T10:20:46;15.05;;;11.70;;
53925;SDS011;39836;52.754;6.866;2022-12-18T10:23:20;14.80;;;11.93;;
53925;SDS011;39836;52.754;6.866;2022-12-18T10:25:55;18.05;;;12.60;;
53925;SDS011;39836;52.754;6.866;2022-12-18T10:28:37;16.58;;;12.40;;
53925;SDS011;39836;52.754;6.866;2022-12-18T10:31:07;15.00;;;11.75;;
53925;SDS011;39836;52.754;6.866;2022-12-18T10:33:38;13.77;;;11.25;;
53925;SDS011;39836;52.754;6.866;2022-12-18T10:36:04;17.88;;;12.45;;
53925;SDS011;39836;52.754;6.866;2022-12-18T10:38:31;17.60;;;12.10;;
53925;SDS011;39836;52.754;6.866;2022-12-18T10:40:58;18.85;;;11.40;;
53925;SDS011;39836;52.754;6.866;2022-12-18T10:43:32;15.70;;;11.32;;
53925;SDS011;39836;52.754;6.866;2022-12-18T10:48:55;21.83;;;12.05;;
53925;SDS011;39836;52.754;6.866;2022-12-18T10:53:57;17.77;;;12.15;;
53925;SDS011;39836;52.754;6.866;2022-12-18T10:56:30;21.67;;;12.02;;
53925;SDS011;39836;52.754;6.866;2022-12-18T11:04:50;15.07;;;11.40;;
53925;SDS011;39836;52.754;6.866;2022-12-18T11:07:17;17.33;;;11.80;;
53925;SDS011;39836;52.754;6.866;2022-12-18T11:09:42;17.90;;;12.70;;
53925;SDS011;39836;52.754;6.866;2022-12-18T11:12:18;25.17;;;13.05;;
53925;SDS011;39836;52.754;6.866;2022-12-18T11:14:52;18.55;;;11.95;;
53925;SDS011;39836;52.754;6.866;2022-12-18T11:17:29;28.00;;;13.13;;
53925;SDS011;39836;52.754;6.866;2022-12-18T11:20:00;17.83;;;12.40;;
53925;SDS011;39836;52.754;6.866;2022-12-18T11:22:32;16.98;;;12.05;;
53925;SDS011;39836;52.754;6.866;2022-12-18T11:27:37;16.20;;;11.98;;
53925;SDS011;39836;52.754;6.866;2022-12-18T11:30:09;19.58;;;12.52;;
53925;SDS011;39836;52.754;6.866;2022-12-18T11:35:52;15.82;;;11.85;;
53925;SDS011;39836;52.754;6.866;2022-12-18T11:38:26;16.98;;;11.00;;
53925;SDS011;39836;52.754;6.866;2022-12-18T11:41:03;14.43;;;10.57;;
53925;SDS011;39836;52.754;6.866;2022-12-18T11:43:38;18.88;;;12.43;;
53925;SDS011;39836;52.754;6.866;2022-12-18T11:46:14;17.80;;;11.50;;
53925;SDS011;39836;52.754;6.866;2022-12-18T11:48:52;16.17;;;11.40;;
53925;SDS011;39836;52.754;6.866;2022-12-18T11:51:48;16.42;;;11.07;;
53925;SDS011;39836;52.754;6.866;2022-12-18T11:54:19;19.83;;;13.05;;
53925;SDS011;39836;52.754;6.866;2022-12-18T11:56:49;20.42;;;11.65;;
53925;SDS011;39836;52.754;6.866;2022-12-18T12:14:03;17.45;;;11.80;;
53925;SDS011;39836;52.754;6.866;2022-12-18T12:17:04;13.27;;;9.30;;
53925;SDS011;39836;52.754;6.866;2022-12-18T12:19:53;15.65;;;10.98;;
53925;SDS011;39836;52.754;6.866;2022-12-18T12:28:19;14.38;;;10.35;;
53925;SDS011;39836;52.754;6.866;2022-12-18T12:31:13;15.93;;;11.13;;
53925;SDS011;39836;52.754;6.866;2022-12-18T12:34:10;13.73;;;10.32;;
53925;SDS011;39836;52.754;6.866;2022-12-18T12:36:45;17.95;;;11.90;;
53925;SDS011;39836;52.754;6.866;2022-12-18T12:39:29;19.10;;;11.95;;
53925;SDS011;39836;52.754;6.866;2022-12-18T12:41:58;18.15;;;11.75;;
53925;SDS011;39836;52.754;6.866;2022-12-18T12:44:43;14.25;;;9.90;;
53925;SDS011;39836;52.754;6.866;2022-12-18T12:47:21;15.98;;;11.20;;
53925;SDS011;39836;52.754;6.866;2022-12-18T12:49:52;15.00;;;10.55;;
53925;SDS011;39836;52.754;6.866;2022-12-18T12:52:30;17.23;;;12.05;;
53925;SDS011;39836;52.754;6.866;2022-12-18T12:55:03;15.00;;;10.55;;
53925;SDS011;39836;52.754;6.866;2022-12-18T12:57:38;16.17;;;12.18;;
53925;SDS011;39836;52.754;6.866;2022-12-18T13:00:14;21.10;;;13.25;;
53925;SDS011;39836;52.754;6.866;2022-12-18T13:02:52;15.70;;;11.60;;
53925;SDS011;39836;52.754;6.866;2022-12-18T13:08:12;15.55;;;12.05;;
53925;SDS011;39836;52.754;6.866;2022-12-18T13:10:52;17.33;;;13.02;;
53925;SDS011;39836;52.754;6.866;2022-12-18T13:13:55;19.67;;;12.40;;
53925;SDS011;39836;52.754;6.866;2022-12-18T13:16:24;18.83;;;12.45;;
53925;SDS011;39836;52.754;6.866;2022-12-18T13:18:51;17.10;;;12.20;;
53925;SDS011;39836;52.754;6.866;2022-12-18T13:21:28;17.02;;;12.15;;
53925;SDS011;39836;52.754;6.866;2022-12-18T13:23:56;16.73;;;11.35;;
53925;SDS011;39836;52.754;6.866;2022-12-18T13:26:38;20.17;;;12.55;;
53925;SDS011;39836;52.754;6.866;2022-12-18T13:29:04;17.83;;;11.82;;
53925;SDS011;39836;52.754;6.866;2022-12-18T13:34:22;19.45;;;11.77;;
53925;SDS011;39836;52.754;6.866;2022-12-18T13:36:49;17.55;;;12.98;;
53925;SDS011;39836;52.754;6.866;2022-12-18T13:41:46;19.42;;;13.02;;
53925;SDS011;39836;52.754;6.866;2022-12-18T13:44:32;15.95;;;12.70;;
53925;SDS011;39836;52.754;6.866;2022-12-18T13:47:05;18.67;;;12.75;;
53925;SDS011;39836;52.754;6.866;2022-12-18T13:49:49;22.02;;;13.98;;
53925;SDS011;39836;52.754;6.866;2022-12-18T13:52:20;18.42;;;12.32;;
53925;SDS011;39836;52.754;6.866;2022-12-18T13:54:52;21.42;;;13.00;;
53925;SDS011;39836;52.754;6.866;2022-12-18T13:57:27;22.67;;;13.52;;
53925;SDS011;39836;52.754;6.866;2022-12-18T13:59:55;18.20;;;12.98;;
53925;SDS011;39836;52.754;6.866;2022-12-18T14:02:23;17.92;;;13.07;;
53925;SDS011;39836;52.754;6.866;2022-12-18T14:04:51;21.40;;;12.32;;
53925;SDS011;39836;52.754;6.866;2022-12-18T14:07:18;20.08;;;12.15;;
53925;SDS011;39836;52.754;6.866;2022-12-18T14:09:48;19.52;;;13.50;;
53925;SDS011;39836;52.754;6.866;2022-12-18T14:12:35;17.48;;;11.90;;
53925;SDS011;39836;52.754;6.866;2022-12-18T14:20:27;20.50;;;14.00;;
53925;SDS011;39836;52.754;6.866;2022-12-18T14:22:54;16.50;;;12.20;;
53925;SDS011;39836;52.754;6.866;2022-12-18T14:25:22;18.42;;;13.55;;
53925;SDS011;39836;52.754;6.866;2022-12-18T14:27:51;16.40;;;12.23;;
53925;SDS011;39836;52.754;6.866;2022-12-18T14:30:25;20.95;;;13.70;;
53925;SDS011;39836;52.754;6.866;2022-12-18T14:33:09;18.63;;;13.75;;
53925;SDS011;39836;52.754;6.866;2022-12-18T14:35:40;18.48;;;13.15;;
53925;SDS011;39836;52.754;6.866;2022-12-18T14:38:29;17.02;;;12.40;;
53925;SDS011;39836;52.754;6.866;2022-12-18T14:43:45;19.15;;;12.32;;
53925;SDS011;39836;52.754;6.866;2022-12-18T14:48:51;19.55;;;14.15;;
53925;SDS011;39836;52.754;6.866;2022-12-18T14:51:18;23.90;;;14.88;;
53925;SDS011;39836;52.754;6.866;2022-12-18T14:53:52;20.65;;;14.75;;
53925;SDS011;39836;52.754;6.866;2022-12-18T14:56:36;21.17;;;13.82;;
53925;SDS011;39836;52.754;6.866;2022-12-18T14:59:15;17.17;;;13.05;;
53925;SDS011;39836;52.754;6.866;2022-12-18T15:01:47;19.33;;;14.02;;
53925;SDS011;39836;52.754;6.866;2022-12-18T15:07:04;19.55;;;14.30;;
53925;SDS011;39836;52.754;6.866;2022-12-18T15:09:41;20.88;;;14.50;;
53925;SDS011;39836;52.754;6.866;2022-12-18T15:12:26;19.63;;;14.55;;
53925;SDS011;39836;52.754;6.866;2022-12-18T15:15:05;21.17;;;13.85;;
53925;SDS011;39836;52.754;6.866;2022-12-18T15:20:44;20.77;;;14.77;;
53925;SDS011;39836;52.754;6.866;2022-12-18T15:25:41;19.75;;;14.85;;
53925;SDS011;39836;52.754;6.866;2022-12-18T15:28:21;20.48;;;13.23;;
53925;SDS011;39836;52.754;6.866;2022-12-18T15:33:35;19.73;;;13.48;;
53925;SDS011;39836;52.754;6.866;2022-12-18T15:36:03;20.85;;;14.48;;
53925;SDS011;39836;52.754;6.866;2022-12-18T15:38:33;21.25;;;14.85;;
53925;SDS011;39836;52.754;6.866;2022-12-18T15:40:59;21.58;;;15.00;;
53925;SDS011;39836;52.754;6.866;2022-12-18T15:43:25;22.77;;;15.63;;
53925;SDS011;39836;52.754;6.866;2022-12-18T15:48:28;21.13;;;14.35;;
53925;SDS011;39836;52.754;6.866;2022-12-18T15:50:55;20.67;;;13.95;;
53925;SDS011;39836;52.754;6.866;2022-12-18T15:53:23;23.58;;;14.50;;
53925;SDS011;39836;52.754;6.866;2022-12-18T15:55:52;22.25;;;14.52;;
53925;SDS011;39836;52.754;6.866;2022-12-18T15:58:36;33.05;;;14.07;;
53925;SDS011;39836;52.754;6.866;2022-12-18T16:01:02;22.02;;;15.05;;
53925;SDS011;39836;52.754;6.866;2022-12-18T16:03:27;19.10;;;13.88;;
53925;SDS011;39836;52.754;6.866;2022-12-18T16:05:53;19.27;;;13.55;;
53925;SDS011;39836;52.754;6.866;2022-12-18T16:08:19;21.05;;;13.80;;
53925;SDS011;39836;52.754;6.866;2022-12-18T16:10:45;26.80;;;15.40;;
53925;SDS011;39836;52.754;6.866;2022-12-18T16:13:11;21.60;;;13.60;;
53925;SDS011;39836;52.754;6.866;2022-12-18T16:15:40;22.08;;;13.70;;
53925;SDS011;39836;52.754;6.866;2022-12-18T16:18:06;21.25;;;14.13;;
53925;SDS011;39836;52.754;6.866;2022-12-18T16:20:32;22.42;;;14.52;;
53925;SDS011;39836;52.754;6.866;2022-12-18T16:22:58;26.80;;;14.48;;
53925;SDS011;39836;52.754;6.866;2022-12-18T16:25:25;22.15;;;15.18;;
53925;SDS011;39836;52.754;6.866;2022-12-18T16:27:52;22.40;;;13.93;;
53925;SDS011;39836;52.754;6.866;2022-12-18T16:30:27;19.95;;;13.00;;
53925;SDS011;39836;52.754;6.866;2022-12-18T16:32:55;21.50;;;14.38;;
53925;SDS011;39836;52.754;6.866;2022-12-18T16:35:25;18.83;;;14.10;;
53925;SDS011;39836;52.754;6.866;2022-12-18T16:37:51;22.58;;;14.82;;
53925;SDS011;39836;52.754;6.866;2022-12-18T16:40:17;21.75;;;13.88;;